Relatórios de METAR próximas

 

LPAR - Alverca, Portugal
Distance from station: SO 47km
Actualizado: 17/12/2018 17:00
NÃO Actual
Céu Limpo
Céu Limpo
 Vento de ENE
Vento: ENE 4 km/h
Temperatura: 13°C
Ponto de Orvalho: 10°C
Humidade: 82%
Barómetro: 1026 hPa
Resumo: Céu Limpo
Visibilidade: greater than 10 km
2018/12/17 17:00 LPAR 171700Z 06002KT CAVOK 13/10 Q1026
LPPT - Lisbon/Portela, Portugal
Distance from station: SO 61km
Actualizado: 17/12/2018 18:30
Céu Limpo
Céu Limpo
 Vento de varies
Vento: varies 6 km/h
Temperatura: 12°C
Ponto de Orvalho: 10°C
Humidade: 88%
Barómetro: 1026 hPa
Resumo: Céu Limpo
Visibilidade: greater than 10 km
2018/12/17 18:30 LPPT 171830Z VRB03KT CAVOK 12/10 Q1026
 
LPMT - Montijo (por-Afb, Portugal
Distance from station: SO 62km
Actualizado: 17/12/2018 18:00
Céu Limpo
Céu Limpo
 Vento de E
Vento: E 6 km/h
Temperatura: 10°C
Ponto de Orvalho: 8°C
Humidade: 88%
Barómetro: 1025 hPa
Resumo: Céu Limpo
Visibilidade: greater than 10 km
2018/12/17 18:00 LPMT 171800Z 10003KT CAVOK 10/08 Q1025
LPST - Sintra/Granja (a, Portugal
Distance from station: OSO 72km
Actualizado: 17/12/2018 17:00
NÃO Actual
Céu Limpo
Céu Limpo
 Vento de ESE
Vento: ESE 13 km/h
Temperatura: 12°C
Ponto de Orvalho: 7°C
Humidade: 72%
Barómetro: 1025 hPa
Resumo: Céu Limpo
Visibilidade: greater than 10 km
2018/12/17 17:00 LPST 171700Z 11007KT CAVOK 12/07 Q1025
 
LPMR - Monte Real(Por-A, Portugal
Distance from station: NNO 80km
Actualizado: 17/12/2018 18:00
Céu Limpo
Céu Limpo
 Vento de SSE
Vento: SSE 6 km/h
Temperatura: 11°C
Ponto de Orvalho: 7°C
Humidade: 77%
Barómetro: 1026 hPa
Resumo: Céu Limpo
Visibilidade: greater than 10 km
2018/12/17 18:00 LPMR 171800Z 16003KT CAVOK 11/07 Q1026
LPBJ - Beja (por/Ger-Af, Portugal
Distance from station: SSE 139km
Actualizado: 17/12/2018 18:00
Céu Limpo
Céu Limpo
 Vento de E
Vento: E 6 km/h
Temperatura: 11°C
Ponto de Orvalho: 6°C
Humidade: 72%
Barómetro: 1027 hPa
Resumo: Céu Limpo
Visibilidade: greater than 10 km
2018/12/17 18:00 LPBJ 171800Z 10003KT CAVOK 11/06 Q1027